Time;durP1;ratioP1;P1;durP2;ratioP2;P2;SDS_P1;SDS_P2;PMS_P1;PMS_P2;Temp;Humidity;BMP_temperature;BMP_pressure;BME280_temperature;BME280_humidity;BME280_pressure;Samples;Min_cycle;Max_cycle;Signal;HPM_P1;HPM_P2
2021/09/12 00:00:41;;;;;;;;;;;11.30;99.90;;;;;;5113159;28;19908;-70
2021/09/12 00:03:07;;;;;;;;;;;11.20;99.90;;;;;;5113223;28;20357;-70
2021/09/12 00:05:33;;;;;;;;;;;11.30;99.90;;;;;;5112992;28;19908;-70
2021/09/12 00:07:59;;;;;;;;;;;11.30;99.90;;;;;;5112581;28;20253;-70
2021/09/12 00:10:24;;;;;;;;;;;11.40;99.90;;;;;;5112938;28;19994;-70
2021/09/12 00:12:50;;;;;;;;;;;11.40;99.90;;;;;;5112923;28;19954;-71
2021/09/12 00:15:15;;;;;;;;;;;11.20;99.90;;;;;;5112762;28;19939;-70
2021/09/12 00:17:41;;;;;;;;;;;11.20;99.90;;;;;;5112201;28;19926;-70
2021/09/12 00:20:07;;;;;;;;;;;11.40;99.90;;;;;;5102097;28;20003;-70
2021/09/12 00:22:33;;;;;;;;;;;11.70;99.90;;;;;;5112547;28;19908;-70
2021/09/12 00:24:59;;;;;;;;;;;11.70;99.90;;;;;;5112722;28;19998;-70
2021/09/12 00:27:24;;;;;;;;;;;11.50;99.90;;;;;;5112215;28;20360;-71
2021/09/12 00:29:50;;;;;;;;;;;11.20;99.90;;;;;;5112648;28;19908;-70
2021/09/12 00:32:15;;;;;;;;;;;11.10;99.90;;;;;;5112408;28;19915;-70
2021/09/12 00:34:41;;;;;;;;;;;11.10;99.90;;;;;;5112563;28;19916;-70
2021/09/12 00:37:06;;;;;;;;;;;11.10;99.90;;;;;;5112075;28;19908;-70
2021/09/12 00:39:32;;;;;;;;;;;11.10;99.90;;;;;;5112398;28;19943;-70
2021/09/12 00:41:57;;;;;;;;;;;11.10;99.90;;;;;;5112427;28;19908;-70
2021/09/12 00:44:23;;;;;;;;;;;11.10;99.90;;;;;;5112351;28;19911;-71
2021/09/12 00:46:49;;;;;;;;;;;11.00;99.90;;;;;;5111681;28;19915;-70
2021/09/12 00:49:15;;;;;;;;;;;10.90;99.90;;;;;;5101800;28;20360;-70
2021/09/12 00:51:40;;;;;;;;;;;10.90;99.90;;;;;;5112395;28;20393;-70
2021/09/12 00:54:07;;;;;;;;;;;10.80;99.90;;;;;;5112262;28;19951;-70
2021/09/12 00:56:34;;;;;;;;;;;10.80;99.90;;;;;;5111741;28;20360;-70
2021/09/12 00:59:01;;;;;;;;;;;10.70;99.90;;;;;;5093985;28;19908;-70
2021/09/12 01:01:27;;;;;;;;;;;10.70;99.90;;;;;;5111389;28;20035;-70
2021/09/12 01:03:53;;;;;;;;;;;10.70;99.90;;;;;;5112123;28;19947;-70
2021/09/12 01:06:19;;;;;;;;;;;10.80;99.90;;;;;;5111528;28;20468;-70
2021/09/12 01:08:44;;;;;;;;;;;10.90;99.90;;;;;;5111954;28;19908;-70
2021/09/12 01:11:10;;;;;;;;;;;10.90;99.90;;;;;;5111756;28;19914;-70
2021/09/12 01:13:36;;;;;;;;;;;10.90;99.90;;;;;;5111795;28;19942;-71
2021/09/12 01:16:08;;;;;;;;;;;10.90;99.90;;;;;;5109744;28;19911;-70
2021/09/12 01:18:33;;;;;;;;;;;10.90;99.90;;;;;;5103658;28;19909;-71
2021/09/12 01:20:59;;;;;;;;;;;10.80;99.90;;;;;;5109813;28;19960;-70
2021/09/12 01:23:24;;;;;;;;;;;10.60;99.90;;;;;;5111846;28;19911;-70
2021/09/12 01:25:54;;;;;;;;;;;10.60;99.90;;;;;;5111795;28;19922;-71
2021/09/12 01:28:19;;;;;;;;;;;10.70;99.90;;;;;;5111375;28;20276;-70
2021/09/12 01:30:45;;;;;;;;;;;10.70;99.90;;;;;;5112016;28;19912;-70
2021/09/12 01:33:10;;;;;;;;;;;10.60;99.90;;;;;;5111832;28;19964;-70
2021/09/12 01:35:36;;;;;;;;;;;10.60;99.90;;;;;;5111724;28;19912;-70
2021/09/12 01:38:01;;;;;;;;;;;10.70;99.90;;;;;;5111319;28;19976;-70
2021/09/12 01:40:27;;;;;;;;;;;10.60;99.90;;;;;;5111568;28;20433;-70
2021/09/12 01:42:52;;;;;;;;;;;10.60;99.90;;;;;;5111495;28;19908;-71
2021/09/12 01:45:18;;;;;;;;;;;10.60;99.90;;;;;;5113200;28;20383;-70
2021/09/12 01:47:46;;;;;;;;;;;10.50;99.90;;;;;;5115270;28;19916;-70
2021/09/12 01:50:12;;;;;;;;;;;10.40;99.90;;;;;;5104955;28;20261;-70
2021/09/12 01:52:37;;;;;;;;;;;10.40;99.90;;;;;;5115414;28;19912;-70
2021/09/12 01:55:03;;;;;;;;;;;10.40;99.90;;;;;;5115290;28;19935;-70
2021/09/12 01:57:29;;;;;;;;;;;10.30;99.90;;;;;;5114871;28;20006;-70
2021/09/12 01:59:54;;;;;;;;;;;10.30;99.90;;;;;;5115368;28;19933;-70
2021/09/12 02:02:20;;;;;;;;;;;10.40;99.90;;;;;;5115669;28;19908;-70
2021/09/12 02:04:45;;;;;;;;;;;10.50;99.90;;;;;;5115380;28;19914;-70
2021/09/12 02:07:11;;;;;;;;;;;10.40;99.90;;;;;;5114945;28;19912;-70
2021/09/12 02:09:36;;;;;;;;;;;10.40;99.90;;;;;;5115386;28;20233;-70
2021/09/12 02:12:02;;;;;;;;;;;10.40;99.90;;;;;;5115109;28;20295;-70
2021/09/12 02:14:27;;;;;;;;;;;10.40;99.90;;;;;;5115024;28;19959;-70
2021/09/12 02:16:53;;;;;;;;;;;10.30;99.90;;;;;;5114837;28;19907;-70
2021/09/12 02:19:18;;;;;;;;;;;10.30;99.90;;;;;;5104570;28;20415;-69
2021/09/12 02:21:44;;;;;;;;;;;10.20;99.90;;;;;;5114672;28;19915;-70
2021/09/12 02:24:09;;;;;;;;;;;10.20;99.90;;;;;;5114985;28;20002;-70
2021/09/12 02:26:35;;;;;;;;;;;10.10;99.90;;;;;;5114524;28;19908;-70
2021/09/12 02:29:00;;;;;;;;;;;10.00;99.90;;;;;;5115062;28;20429;-70
2021/09/12 02:31:26;;;;;;;;;;;10.00;99.90;;;;;;5115152;28;19912;-70
2021/09/12 02:33:51;;;;;;;;;;;10.00;99.90;;;;;;5114939;28;19918;-70
2021/09/12 02:36:17;;;;;;;;;;;9.90;99.90;;;;;;5114406;28;19953;-70
2021/09/12 02:38:42;;;;;;;;;;;9.90;99.90;;;;;;5114780;28;20375;-70
2021/09/12 02:41:07;;;;;;;;;;;9.90;99.90;;;;;;5114582;28;20387;-70
2021/09/12 02:43:33;;;;;;;;;;;9.90;99.90;;;;;;5114817;28;19961;-70
2021/09/12 02:45:58;;;;;;;;;;;9.90;99.90;;;;;;5114647;28;19923;-70
2021/09/12 02:48:24;;;;;;;;;;;9.80;99.90;;;;;;5108473;28;19916;-70
2021/09/12 02:50:49;;;;;;;;;;;9.80;99.90;;;;;;5109839;28;19930;-69
2021/09/12 02:53:15;;;;;;;;;;;9.90;99.90;;;;;;5114448;28;19912;-69
2021/09/12 02:55:40;;;;;;;;;;;9.90;99.90;;;;;;5113913;28;19915;-69
2021/09/12 02:58:06;;;;;;;;;;;9.80;99.90;;;;;;5112946;28;19912;-70
2021/09/12 03:00:31;;;;;;;;;;;9.70;99.90;;;;;;5114285;28;19970;-69
2021/09/12 03:02:57;;;;;;;;;;;9.70;99.90;;;;;;5114197;28;19911;-70
2021/09/12 03:05:22;;;;;;;;;;;9.70;99.90;;;;;;5113931;28;20391;-70
2021/09/12 03:07:48;;;;;;;;;;;9.70;99.90;;;;;;5113618;28;19912;-69
2021/09/12 03:10:13;;;;;;;;;;;9.80;99.90;;;;;;5113948;28;19946;-70
2021/09/12 03:12:39;;;;;;;;;;;9.70;99.90;;;;;;5113537;28;19912;-70
2021/09/12 03:15:05;;;;;;;;;;;9.70;99.90;;;;;;5113683;28;19955;-70
2021/09/12 03:17:30;;;;;;;;;;;9.70;99.90;;;;;;5113465;28;19908;-69
2021/09/12 03:19:56;;;;;;;;;;;9.60;99.90;;;;;;5103318;28;20098;-70
2021/09/12 03:22:22;;;;;;;;;;;9.60;99.90;;;;;;5113772;28;19958;-69
2021/09/12 03:24:47;;;;;;;;;;;9.60;99.90;;;;;;5113899;28;19912;-70
2021/09/12 03:27:13;;;;;;;;;;;9.50;99.90;;;;;;5113105;28;19908;-70
2021/09/12 03:29:38;;;;;;;;;;;9.40;99.90;;;;;;5113740;28;19915;-70
2021/09/12 03:32:04;;;;;;;;;;;9.40;99.90;;;;;;5113694;28;19908;-70
2021/09/12 03:34:30;;;;;;;;;;;9.40;99.90;;;;;;5113769;28;19947;-70
2021/09/12 03:36:55;;;;;;;;;;;9.40;99.90;;;;;;5113268;28;20357;-70
2021/09/12 03:39:21;;;;;;;;;;;9.30;99.90;;;;;;5113524;28;19918;-71
2021/09/12 03:41:46;;;;;;;;;;;9.40;99.90;;;;;;5113219;28;19915;-70
2021/09/12 03:44:12;;;;;;;;;;;9.40;99.90;;;;;;5113472;28;19951;-70
2021/09/12 03:46:38;;;;;;;;;;;9.40;99.90;;;;;;5112810;28;19920;-70
2021/09/12 03:49:03;;;;;;;;;;;9.40;99.90;;;;;;5103108;28;19961;-70
2021/09/12 03:51:28;;;;;;;;;;;9.30;99.90;;;;;;5113078;28;19943;-70
2021/09/12 03:53:54;;;;;;;;;;;9.30;99.90;;;;;;5113603;28;19911;-69
2021/09/12 03:56:19;;;;;;;;;;;9.30;99.90;;;;;;5112953;28;19961;-70
2021/09/12 03:58:45;;;;;;;;;;;9.40;99.90;;;;;;5113184;28;19908;-70
2021/09/12 04:01:10;;;;;;;;;;;9.50;99.90;;;;;;5113045;28;19916;-70
2021/09/12 04:03:36;;;;;;;;;;;9.50;99.90;;;;;;5113040;28;19907;-70
2021/09/12 04:06:01;;;;;;;;;;;9.30;99.90;;;;;;5112644;28;19908;-70
2021/09/12 04:08:27;;;;;;;;;;;9.30;99.90;;;;;;5112594;28;20385;-70
2021/09/12 04:10:52;;;;;;;;;;;9.30;99.90;;;;;;5112704;28;20395;-70
2021/09/12 04:13:18;;;;;;;;;;;9.30;99.90;;;;;;5112871;28;19908;-70
2021/09/12 04:15:43;;;;;;;;;;;9.20;99.90;;;;;;5112742;28;20375;-70
2021/09/12 04:18:09;;;;;;;;;;;9.10;99.90;;;;;;5110846;28;19937;-70
2021/09/12 04:20:34;;;;;;;;;;;9.10;99.90;;;;;;5103755;28;19914;-70
2021/09/12 04:23:00;;;;;;;;;;;9.00;99.90;;;;;;5112463;28;19908;-70
2021/09/12 04:25:25;;;;;;;;;;;9.00;99.90;;;;;;5112490;28;19941;-70
2021/09/12 04:27:51;;;;;;;;;;;9.00;99.90;;;;;;5112675;28;19915;-70
2021/09/12 04:30:16;;;;;;;;;;;9.10;99.90;;;;;;5112577;28;19908;-70
2021/09/12 04:32:42;;;;;;;;;;;9.10;99.90;;;;;;5112405;28;19988;-70
2021/09/12 04:35:09;;;;;;;;;;;9.00;99.90;;;;;;5112430;28;19933;-70
2021/09/12 04:37:34;;;;;;;;;;;9.10;99.90;;;;;;5093795;28;19957;-70
2021/09/12 04:40:00;;;;;;;;;;;9.00;99.90;;;;;;5112153;28;20376;-70
2021/09/12 04:42:25;;;;;;;;;;;8.90;99.90;;;;;;5112110;28;19912;-70
2021/09/12 04:44:51;;;;;;;;;;;8.90;99.90;;;;;;5112237;28;19919;-70
2021/09/12 04:47:16;;;;;;;;;;;8.90;99.90;;;;;;5111782;28;20428;-70
2021/09/12 04:49:42;;;;;;;;;;;8.90;99.90;;;;;;5101614;28;20380;-69
2021/09/12 04:52:07;;;;;;;;;;;8.90;99.90;;;;;;5112029;28;19908;-70
2021/09/12 04:54:33;;;;;;;;;;;8.90;99.90;;;;;;5111745;28;19961;-71
2021/09/12 04:56:58;;;;;;;;;;;8.80;99.90;;;;;;5111786;28;19956;-70
2021/09/12 04:59:24;;;;;;;;;;;8.70;99.90;;;;;;5112552;28;19908;-70
2021/09/12 05:01:49;;;;;;;;;;;8.70;99.90;;;;;;5111934;28;20393;-70
2021/09/12 05:04:15;;;;;;;;;;;8.70;99.90;;;;;;5112079;28;19968;-70
2021/09/12 05:06:40;;;;;;;;;;;8.70;99.90;;;;;;5111549;28;20100;-69
2021/09/12 05:09:06;;;;;;;;;;;8.70;99.90;;;;;;5111824;28;20375;-69
2021/09/12 05:11:31;;;;;;;;;;;8.70;99.90;;;;;;5111668;28;19908;-70
2021/09/12 05:13:57;;;;;;;;;;;8.70;99.90;;;;;;5111894;28;19908;-70
2021/09/12 05:16:22;;;;;;;;;;;8.70;99.90;;;;;;5111527;28;20280;-70
2021/09/12 05:18:50;;;;;;;;;;;8.70;99.90;;;;;;5101054;28;19908;-69
2021/09/12 05:21:16;;;;;;;;;;;8.80;99.90;;;;;;5110989;28;20372;-70
2021/09/12 05:23:41;;;;;;;;;;;8.70;99.90;;;;;;5111583;28;20002;-71
2021/09/12 05:26:07;;;;;;;;;;;8.70;99.90;;;;;;5111325;28;19943;-70
2021/09/12 05:28:34;;;;;;;;;;;8.80;99.90;;;;;;5112243;28;19977;-70
2021/09/12 05:30:59;;;;;;;;;;;8.90;99.90;;;;;;5111787;28;20387;-69
2021/09/12 05:33:25;;;;;;;;;;;8.90;99.90;;;;;;5111687;28;19908;-70
2021/09/12 05:35:50;;;;;;;;;;;8.90;99.90;;;;;;5111384;28;20308;-70
2021/09/12 05:38:16;;;;;;;;;;;9.00;99.90;;;;;;5111123;28;19908;-70
2021/09/12 05:40:41;;;;;;;;;;;9.00;99.90;;;;;;5111453;28;20167;-70
2021/09/12 05:43:07;;;;;;;;;;;9.00;99.90;;;;;;5111507;28;19922;-70
2021/09/12 05:45:32;;;;;;;;;;;9.10;99.90;;;;;;5111388;28;19908;-70
2021/09/12 05:47:58;;;;;;;;;;;9.20;99.90;;;;;;5111436;28;19934;-69
2021/09/12 05:50:23;;;;;;;;;;;9.30;99.90;;;;;;5100889;28;19908;-70
2021/09/12 05:52:49;;;;;;;;;;;9.30;99.90;;;;;;5111243;28;19911;-69
2021/09/12 05:55:14;;;;;;;;;;;9.40;99.90;;;;;;5111644;28;19912;-70
2021/09/12 05:57:40;;;;;;;;;;;9.50;99.90;;;;;;5110937;28;19934;-70
2021/09/12 06:00:06;;;;;;;;;;;9.70;99.90;;;;;;5111591;28;19994;-70
2021/09/12 06:02:32;;;;;;;;;;;9.80;99.90;;;;;;5111242;28;20287;-70
2021/09/12 06:05:02;;;;;;;;;;;9.80;99.90;;;;;;5111246;28;19907;-70
2021/09/12 06:07:27;;;;;;;;;;;9.80;99.90;;;;;;5110875;28;20283;-69
2021/09/12 06:09:53;;;;;;;;;;;9.90;99.90;;;;;;5111055;28;19939;-70
2021/09/12 06:12:18;;;;;;;;;;;10.00;99.90;;;;;;5111271;28;19943;-70
2021/09/12 06:14:44;;;;;;;;;;;10.10;99.90;;;;;;5111244;28;20287;-70
2021/09/12 06:17:09;;;;;;;;;;;10.20;99.90;;;;;;5110917;28;19908;-70
2021/09/12 06:19:35;;;;;;;;;;;10.30;99.90;;;;;;5100710;28;19914;-70
2021/09/12 06:22:01;;;;;;;;;;;10.40;99.90;;;;;;5110582;28;19911;-71
2021/09/12 06:24:26;;;;;;;;;;;10.40;99.90;;;;;;5092118;28;19919;-70
2021/09/12 06:26:52;;;;;;;;;;;10.60;99.90;;;;;;5110392;28;19998;-70
2021/09/12 06:29:18;;;;;;;;;;;10.80;99.90;;;;;;5111023;28;19998;-70
2021/09/12 06:31:43;;;;;;;;;;;10.80;99.90;;;;;;5112891;28;19908;-70
2021/09/12 06:34:09;;;;;;;;;;;10.90;99.90;;;;;;5114695;28;20368;-70
2021/09/12 06:36:34;;;;;;;;;;;11.00;99.90;;;;;;5114227;28;19914;-70
2021/09/12 06:39:00;;;;;;;;;;;11.20;99.90;;;;;;5114445;28;19919;-70
2021/09/12 06:41:25;;;;;;;;;;;11.20;99.90;;;;;;5114403;28;20392;-70
2021/09/12 06:43:50;;;;;;;;;;;11.40;99.90;;;;;;5114445;28;20006;-70
2021/09/12 06:46:16;;;;;;;;;;;11.60;99.90;;;;;;5113802;28;19969;-70
2021/09/12 06:48:42;;;;;;;;;;;11.80;99.90;;;;;;5103794;28;19954;-71
2021/09/12 06:51:07;;;;;;;;;;;12.00;99.90;;;;;;5113848;28;19915;-70
2021/09/12 06:53:33;;;;;;;;;;;12.00;99.90;;;;;;5114196;28;19962;-70
2021/09/12 06:55:58;;;;;;;;;;;12.00;99.90;;;;;;5114273;28;19912;-70
2021/09/12 06:58:24;;;;;;;;;;;12.00;99.90;;;;;;5114186;28;19938;-69
2021/09/12 07:00:49;;;;;;;;;;;12.00;99.90;;;;;;5114068;28;19908;-70
2021/09/12 07:03:14;;;;;;;;;;;12.00;99.90;;;;;;5114151;28;19982;-70
2021/09/12 07:05:40;;;;;;;;;;;12.10;99.90;;;;;;5114241;28;20361;-72
2021/09/12 07:08:05;;;;;;;;;;;12.20;99.90;;;;;;5113643;28;19908;-70
2021/09/12 07:10:31;;;;;;;;;;;12.30;99.90;;;;;;5114064;28;19911;-70
2021/09/12 07:12:56;;;;;;;;;;;12.40;99.90;;;;;;5114005;28;19908;-70
2021/09/12 07:15:22;;;;;;;;;;;12.60;99.90;;;;;;5113908;28;19969;-70
2021/09/12 07:17:48;;;;;;;;;;;12.80;99.90;;;;;;5113674;28;20272;-70
2021/09/12 07:20:13;;;;;;;;;;;12.80;99.90;;;;;;5103325;28;20322;-71
2021/09/12 07:22:39;;;;;;;;;;;12.90;99.90;;;;;;5113541;28;19915;-71
2021/09/12 07:25:05;;;;;;;;;;;13.10;99.90;;;;;;5113984;28;19916;-70
2021/09/12 07:27:30;;;;;;;;;;;13.20;99.90;;;;;;5113841;28;19907;-70
2021/09/12 07:29:56;;;;;;;;;;;13.30;99.90;;;;;;5113879;28;19966;-71
2021/09/12 07:32:21;;;;;;;;;;;13.50;99.90;;;;;;5113826;28;20015;-70
2021/09/12 07:34:47;;;;;;;;;;;13.80;99.90;;;;;;5113810;28;19915;-71
2021/09/12 07:37:12;;;;;;;;;;;14.50;99.90;;;;;;5113075;28;19908;-71
2021/09/12 07:39:38;;;;;;;;;;;15.80;99.90;;;;;;5113787;28;19973;-71
2021/09/12 07:42:03;;;;;;;;;;;16.80;99.90;;;;;;5113319;28;20433;-71
2021/09/12 07:44:29;;;;;;;;;;;16.20;99.90;;;;;;5113371;28;19916;-72
2021/09/12 07:46:54;;;;;;;;;;;15.90;99.90;;;;;;5113169;28;20445;-70
2021/09/12 07:49:20;;;;;;;;;;;15.90;99.90;;;;;;5102998;28;19945;-71
2021/09/12 07:51:45;;;;;;;;;;;17.20;99.90;;;;;;5112853;28;20399;-71
2021/09/12 07:54:11;;;;;;;;;;;18.80;99.90;;;;;;5113188;28;19911;-71
2021/09/12 07:56:36;;;;;;;;;;;20.20;99.90;;;;;;5112702;28;19908;-71
2021/09/12 07:59:03;;;;;;;;;;;21.50;99.90;;;;;;5112531;28;20428;-72
2021/09/12 08:01:29;;;;;;;;;;;21.70;99.90;;;;;;5113055;28;19961;-71
2021/09/12 08:03:55;;;;;;;;;;;21.30;99.90;;;;;;5113289;28;19915;-71
2021/09/12 08:06:21;;;;;;;;;;;21.30;99.90;;;;;;5112426;28;19908;-71
2021/09/12 08:08:47;;;;;;;;;;;22.30;99.90;;;;;;5113118;28;19907;-71
2021/09/12 08:11:12;;;;;;;;;;;23.10;99.90;;;;;;5112918;28;20290;-72
2021/09/12 08:13:38;;;;;;;;;;;23.40;99.90;;;;;;5113035;28;19908;-72
2021/09/12 08:16:03;;;;;;;;;;;23.00;99.90;;;;;;5112318;28;19912;-72
2021/09/12 08:18:29;;;;;;;;;;;23.50;99.90;;;;;;5105581;28;19950;-71
2021/09/12 08:20:54;;;;;;;;;;;23.80;99.90;;;;;;5109368;28;19907;-72
2021/09/12 08:23:20;;;;;;;;;;;24.10;99.90;;;;;;5112742;28;20356;-72
2021/09/12 08:25:49;;;;;;;;;;;24.70;99.90;;;;;;5112696;28;19915;-72
2021/09/12 08:28:15;;;;;;;;;;;24.40;99.90;;;;;;5112372;28;19954;-72
2021/09/12 08:30:40;;;;;;;;;;;24.00;99.90;;;;;;5112779;28;19912;-72
2021/09/12 08:33:09;;;;;;;;;;;24.40;99.90;;;;;;5112552;28;20357;-72
2021/09/12 08:35:35;;;;;;;;;;;24.80;99.90;;;;;;5112291;28;19919;-72
2021/09/12 08:38:00;;;;;;;;;;;24.70;99.90;;;;;;5112120;28;19911;-72
2021/09/12 08:40:26;;;;;;;;;;;24.70;99.90;;;;;;5112407;28;19915;-72
2021/09/12 08:42:52;;;;;;;;;;;25.10;99.90;;;;;;5112473;28;19937;-72
2021/09/12 08:45:18;;;;;;;;;;;25.90;99.90;;;;;;5112374;28;20348;-75
2021/09/12 08:47:43;;;;;;;;;;;26.00;99.90;;;;;;5111761;28;19994;-72
2021/09/12 08:50:09;;;;;;;;;;;26.30;98.70;;;;;;5101501;28;19908;-72
2021/09/12 08:52:35;;;;;;;;;;;26.20;99.40;;;;;;5112159;28;19939;-72
2021/09/12 08:55:00;;;;;;;;;;;26.80;99.00;;;;;;5111125;28;20006;-72
2021/09/12 08:57:26;;;;;;;;;;;26.90;97.60;;;;;;5111732;28;19914;-72
2021/09/12 08:59:51;;;;;;;;;;;26.60;97.30;;;;;;5112115;28;19912;-72
2021/09/12 09:02:24;;;;;;;;;;;26.20;97.30;;;;;;5111918;28;19907;-72
2021/09/12 09:04:58;;;;;;;;;;;26.40;96.70;;;;;;5112059;28;20424;-71
2021/09/12 09:07:28;;;;;;;;;;;27.20;95.40;;;;;;5111664;28;19907;-71
2021/09/12 09:09:53;;;;;;;;;;;27.20;93.80;;;;;;5111959;28;19953;-72
2021/09/12 09:12:30;;;;;;;;;;;28.10;93.20;;;;;;5111928;28;20010;-72
2021/09/12 09:14:59;;;;;;;;;;;28.50;95.10;;;;;;5111738;28;19937;-72
2021/09/12 09:17:24;;;;;;;;;;;28.80;92.90;;;;;;5111415;28;19916;-72
2021/09/12 09:19:51;;;;;;;;;;;28.20;93.20;;;;;;5101142;28;19960;-72
2021/09/12 09:22:27;;;;;;;;;;;28.50;92.20;;;;;;5111542;28;19992;-72
2021/09/12 09:24:56;;;;;;;;;;;29.00;91.80;;;;;;5111803;28;20364;-72
2021/09/12 09:27:22;;;;;;;;;;;28.80;92.00;;;;;;5111347;28;19916;-72
2021/09/12 09:29:53;;;;;;;;;;;29.60;92.30;;;;;;5111824;28;20662;-71
2021/09/12 09:32:18;;;;;;;;;;;29.50;91.00;;;;;;5111637;28;19908;-72
2021/09/12 09:34:44;;;;;;;;;;;28.70;92.90;;;;;;5111605;28;19912;-72
2021/09/12 09:37:10;;;;;;;;;;;28.90;91.30;;;;;;5111291;28;19961;-72
2021/09/12 09:39:46;;;;;;;;;;;29.40;91.60;;;;;;5111588;28;19907;-72
2021/09/12 09:42:31;;;;;;;;;;;30.40;90.10;;;;;;5111418;28;20232;-72
2021/09/12 09:44:57;;;;;;;;;;;29.90;87.80;;;;;;5111480;28;19915;-71
2021/09/12 09:47:25;;;;;;;;;;;29.30;85.50;;;;;;5111221;28;20411;-72
2021/09/12 09:50:01;;;;;;;;;;;29.40;86.30;;;;;;5100818;28;19908;-72
2021/09/12 09:52:27;;;;;;;;;;;29.50;85.10;;;;;;5111194;28;19908;-72
2021/09/12 09:54:54;;;;;;;;;;;29.90;85.60;;;;;;5111321;28;19922;-72
2021/09/12 09:57:19;;;;;;;;;;;30.70;90.20;;;;;;5110832;28;20391;-72
2021/09/12 09:59:45;;;;;;;;;;;30.70;83.90;;;;;;5111316;28;19943;-72
2021/09/12 10:02:12;;;;;;;;;;;31.00;80.70;;;;;;5111243;28;19915;-72
2021/09/12 10:04:38;;;;;;;;;;;31.20;81.80;;;;;;5111351;28;19972;-72
2021/09/12 10:07:03;;;;;;;;;;;30.90;83.70;;;;;;5113862;28;19907;-72
2021/09/12 10:09:29;;;;;;;;;;;29.70;80.50;;;;;;5116629;28;19915;-72
2021/09/12 10:11:56;;;;;;;;;;;30.00;84.60;;;;;;5117125;28;20424;-72
2021/09/12 10:14:40;;;;;;;;;;;31.60;80.40;;;;;;5117421;28;20299;-71
2021/09/12 10:17:13;;;;;;;;;;;31.70;79.40;;;;;;5116871;28;20449;-72
2021/09/12 10:19:39;;;;;;;;;;;31.70;78.20;;;;;;5106644;28;19937;-71
2021/09/12 10:22:08;;;;;;;;;;;31.50;78.60;;;;;;5115108;28;19919;-72
2021/09/12 10:24:34;;;;;;;;;;;31.10;76.20;;;;;;5115070;28;20382;-72
2021/09/12 10:27:15;;;;;;;;;;;32.00;75.40;;;;;;5114675;28;19951;-72
2021/09/12 10:29:51;;;;;;;;;;;31.20;75.00;;;;;;5096742;28;20346;-72
2021/09/12 10:32:30;;;;;;;;;;;30.80;77.70;;;;;;5096180;28;19951;-72
2021/09/12 10:35:11;;;;;;;;;;;30.20;77.80;;;;;;5114805;28;19911;-72
2021/09/12 10:37:37;;;;;;;;;;;31.40;77.00;;;;;;5114439;28;20296;-72
2021/09/12 10:40:02;;;;;;;;;;;30.80;79.00;;;;;;5114696;28;19915;-72
2021/09/12 10:42:40;;;;;;;;;;;31.50;74.40;;;;;;5114440;28;19908;-72
2021/09/12 10:45:17;;;;;;;;;;;31.20;74.80;;;;;;5114369;28;19908;-72
2021/09/12 10:47:42;;;;;;;;;;;31.30;76.30;;;;;;5113978;28;20399;-72
2021/09/12 10:50:27;;;;;;;;;;;29.70;77.70;;;;;;5102432;28;19908;-72
2021/09/12 10:52:56;;;;;;;;;;;30.80;80.70;;;;;;5114106;28;20415;-72
2021/09/12 10:55:21;;;;;;;;;;;29.60;81.90;;;;;;5114266;28;20364;-72
2021/09/12 10:57:47;;;;;;;;;;;26.30;87.20;;;;;;5113956;28;20002;-72
2021/09/12 11:00:16;;;;;;;;;;;25.30;91.10;;;;;;5114294;28;19915;-72
2021/09/12 11:02:47;;;;;;;;;;;27.30;90.00;;;;;;5114089;28;19968;-72
2021/09/12 11:05:25;;;;;;;;;;;28.70;85.90;;;;;;5114268;28;19908;-72
2021/09/12 11:07:54;;;;;;;;;;;30.90;79.30;;;;;;5113871;28;19911;-72
2021/09/12 11:10:38;;;;;;;;;;;27.10;84.90;;;;;;5114173;28;19912;-72
2021/09/12 11:13:04;;;;;;;;;;;25.50;88.80;;;;;;5114389;28;20437;-72
2021/09/12 11:15:29;;;;;;;;;;;24.90;92.90;;;;;;5114041;28;19939;-72
2021/09/12 11:17:55;;;;;;;;;;;29.50;84.10;;;;;;5094298;28;20403;-72
2021/09/12 11:20:21;;;;;;;;;;;31.60;78.70;;;;;;5103188;28;19912;-72
2021/09/12 11:22:52;;;;;;;;;;;31.50;76.60;;;;;;5113680;28;19908;-72
2021/09/12 11:25:20;;;;;;;;;;;32.10;73.60;;;;;;5113742;28;19915;-72
2021/09/12 11:28:01;;;;;;;;;;;32.80;72.20;;;;;;5113289;28;19915;-72
2021/09/12 11:30:26;;;;;;;;;;;32.30;75.10;;;;;;5113528;28;20199;-72
2021/09/12 11:32:52;;;;;;;;;;;30.40;79.40;;;;;;5113399;28;19908;-72
2021/09/12 11:35:17;;;;;;;;;;;32.00;75.10;;;;;;5113354;28;19915;-72
2021/09/12 11:37:43;;;;;;;;;;;32.60;72.00;;;;;;5113161;28;19974;-72
2021/09/12 11:40:08;;;;;;;;;;;32.20;73.30;;;;;;5113469;28;19939;-72
2021/09/12 11:42:34;;;;;;;;;;;31.20;75.40;;;;;;5113443;28;20292;-72
2021/09/12 11:44:59;;;;;;;;;;;28.70;78.90;;;;;;5113305;28;20391;-72
2021/09/12 11:47:26;;;;;;;;;;;28.50;77.90;;;;;;5112783;28;20281;-72
2021/09/12 11:50:02;;;;;;;;;;;24.40;87.20;;;;;;5102232;28;19912;-72
2021/09/12 11:52:30;;;;;;;;;;;23.10;92.40;;;;;;5113386;28;20343;-72
2021/09/12 11:54:56;;;;;;;;;;;24.80;91.30;;;;;;5113161;28;19918;-72
2021/09/12 11:57:21;;;;;;;;;;;29.40;81.40;;;;;;5112697;28;20352;-72
2021/09/12 11:59:48;;;;;;;;;;;28.60;78.50;;;;;;5112936;28;19908;-71
2021/09/12 12:02:15;;;;;;;;;;;24.80;90.00;;;;;;5112951;28;19960;-71
2021/09/12 12:04:41;;;;;;;;;;;23.40;92.10;;;;;;5113156;28;19915;-72
2021/09/12 12:07:07;;;;;;;;;;;23.10;93.30;;;;;;5112464;28;19990;-72
2021/09/12 12:09:43;;;;;;;;;;;23.10;94.20;;;;;;5112958;28;19992;-71
2021/09/12 12:12:31;;;;;;;;;;;23.00;93.90;;;;;;5112718;28;20338;-72
2021/09/12 12:14:58;;;;;;;;;;;22.90;94.70;;;;;;5112140;28;19966;-72
2021/09/12 12:17:24;;;;;;;;;;;22.50;94.70;;;;;;5112324;28;19908;-71
2021/09/12 12:19:51;;;;;;;;;;;22.70;93.90;;;;;;5102098;28;20292;-71
2021/09/12 12:22:17;;;;;;;;;;;22.40;94.80;;;;;;5112442;28;19907;-71
2021/09/12 12:24:44;;;;;;;;;;;22.00;95.00;;;;;;5112736;28;19943;-72
2021/09/12 12:27:11;;;;;;;;;;;22.00;95.40;;;;;;5112593;28;19950;-71
2021/09/12 12:29:37;;;;;;;;;;;21.90;95.40;;;;;;5113857;28;19908;-71
2021/09/12 12:32:04;;;;;;;;;;;21.80;97.30;;;;;;5113445;28;20437;-71
2021/09/12 12:34:44;;;;;;;;;;;21.90;96.70;;;;;;5112436;28;20352;-72
2021/09/12 12:37:11;;;;;;;;;;;22.10;95.60;;;;;;5111986;28;20173;-72
2021/09/12 12:39:37;;;;;;;;;;;22.10;96.20;;;;;;5112840;28;19907;-71
2021/09/12 12:42:03;;;;;;;;;;;22.10;95.80;;;;;;5113583;28;19908;-72
2021/09/12 12:44:29;;;;;;;;;;;22.20;97.70;;;;;;5113124;28;19914;-71
2021/09/12 12:46:56;;;;;;;;;;;22.00;97.10;;;;;;5112037;28;19968;-71
2021/09/12 12:49:26;;;;;;;;;;;21.90;97.00;;;;;;5101947;28;19957;-71
2021/09/12 12:52:05;;;;;;;;;;;22.00;96.70;;;;;;5111998;28;19912;-72
2021/09/12 12:54:32;;;;;;;;;;;21.90;96.70;;;;;;5112305;28;19951;-70
2021/09/12 12:56:58;;;;;;;;;;;21.90;97.40;;;;;;5111981;28;20387;-72
2021/09/12 12:59:24;;;;;;;;;;;22.10;97.40;;;;;;5112172;28;19907;-72
2021/09/12 13:01:49;;;;;;;;;;;21.70;97.00;;;;;;5112165;28;19907;-71
2021/09/12 13:04:15;;;;;;;;;;;21.40;97.80;;;;;;5112045;28;19915;-71
2021/09/12 13:06:40;;;;;;;;;;;21.50;98.40;;;;;;5111718;28;20273;-71
2021/09/12 13:09:06;;;;;;;;;;;21.30;98.70;;;;;;5112144;28;19915;-72
2021/09/12 13:11:34;;;;;;;;;;;21.50;97.90;;;;;;5111944;28;19907;-71
2021/09/12 13:14:00;;;;;;;;;;;21.60;99.00;;;;;;5111979;28;20269;-72
2021/09/12 13:16:26;;;;;;;;;;;21.80;98.80;;;;;;5111592;28;19915;-72
2021/09/12 13:18:51;;;;;;;;;;;21.90;98.20;;;;;;5101453;28;19913;-71
2021/09/12 13:21:17;;;;;;;;;;;22.10;97.40;;;;;;5111647;28;19915;-72
2021/09/12 13:23:43;;;;;;;;;;;22.00;97.60;;;;;;5112063;28;19908;-72
2021/09/12 13:26:08;;;;;;;;;;;21.80;97.60;;;;;;5111514;28;19908;-72
2021/09/12 13:28:34;;;;;;;;;;;21.60;98.40;;;;;;5111800;28;19908;-72
2021/09/12 13:31:00;;;;;;;;;;;21.40;98.40;;;;;;5111918;28;19912;-71
2021/09/12 13:33:30;;;;;;;;;;;21.00;97.80;;;;;;5111706;28;19915;-71
2021/09/12 13:35:56;;;;;;;;;;;21.10;98.20;;;;;;5111810;28;19916;-71
2021/09/12 13:38:22;;;;;;;;;;;21.30;98.60;;;;;;5111361;28;19918;-71
2021/09/12 13:40:47;;;;;;;;;;;21.20;98.60;;;;;;5112620;28;19960;-72
2021/09/12 13:43:13;;;;;;;;;;;21.10;98.40;;;;;;5116281;28;20010;-71
2021/09/12 13:45:38;;;;;;;;;;;21.00;99.60;;;;;;5115865;28;19912;-72
2021/09/12 13:48:04;;;;;;;;;;;21.00;99.20;;;;;;5115205;28;19912;-71
2021/09/12 13:50:30;;;;;;;;;;;21.00;98.90;;;;;;5105556;28;19908;-72
2021/09/12 13:52:55;;;;;;;;;;;20.90;98.00;;;;;;5115705;28;20253;-71
2021/09/12 13:55:21;;;;;;;;;;;21.20;96.40;;;;;;5115701;28;19968;-71
2021/09/12 13:57:46;;;;;;;;;;;21.40;95.70;;;;;;5115120;28;20287;-71
2021/09/12 14:00:12;;;;;;;;;;;21.50;95.70;;;;;;5115634;28;19934;-71
2021/09/12 14:02:38;;;;;;;;;;;21.30;96.30;;;;;;5115397;28;19947;-72
2021/09/12 14:05:04;;;;;;;;;;;21.30;95.80;;;;;;5115614;28;19953;-71
2021/09/12 14:07:31;;;;;;;;;;;21.20;97.30;;;;;;5115111;28;20399;-71
2021/09/12 14:09:56;;;;;;;;;;;21.20;98.40;;;;;;5115422;28;19943;-71
2021/09/12 14:12:22;;;;;;;;;;;21.30;97.50;;;;;;5115280;28;20364;-72
2021/09/12 14:14:48;;;;;;;;;;;21.40;97.40;;;;;;5115244;28;19957;-72
2021/09/12 14:17:13;;;;;;;;;;;21.60;97.70;;;;;;5114769;28;19907;-72